This is the latest recevied weather packets stored in our database for station/object DA6VK-10. If no packets are shown the sender has not sent any weather packets the latest 10 day(s).
| Time | Temp. | Humidity | Pressure | Rain* | Wind** | Luminosity | Snow |
|---|---|---|---|---|---|---|---|
| 1777819334 | 25° C | 21% | 1015 hPa | - | - | - | - |
| 1777819233 | 25° C | 22% | 1014.7 hPa | - | - | - | - |
| 1777819031 | 24.44° C | 22% | 1014.8 hPa | - | - | - | - |
| 1777818753 | 24.44° C | 23% | 1015 hPa | - | - | - | - |
| 1777818677 | 23.89° C | 23% | 1015 hPa | - | - | - | - |
| 1777818551 | 23.89° C | 23% | 1015.1 hPa | - | - | - | - |
| 1777813677 | 23.89° C | 24% | 1015.7 hPa | - | - | - | - |
| 1777813176 | 23.89° C | 23% | 1015.9 hPa | - | - | - | - |
| 1777812730 | 23.89° C | 24% | 1015.9 hPa | - | - | - | - |
| 1777811311 | 23.89° C | 23% | 1015.8 hPa | - | - | - | - |
| 1777811210 | 23.89° C | 24% | 1015.9 hPa | - | - | - | - |
| 1777811185 | 23.33° C | 24% | 1015.9 hPa | - | - | - | - |
| 1777811084 | 23.33° C | 24% | 1015.8 hPa | - | - | - | - |
| 1777810935 | 22.78° C | 24% | 1015.9 hPa | - | - | - | - |
| 1777810885 | 22.78° C | 25% | 1015.9 hPa | - | - | - | - |
| 1777739407 | 28.33° C | 28% | 1018.1 hPa | - | - | - | - |
| 1777739331 | 28.33° C | 28% | 1018 hPa | - | - | - | - |
| 1777739306 | 28.33° C | 28% | 1018.2 hPa | - | - | - | - |
| 1777739255 | 27.78° C | 28% | 1018.1 hPa | - | - | - | - |
| 1777739230 | 27.78° C | 28% | 1018.2 hPa | - | - | - | - |
| 1777739205 | 27.78° C | 29% | 1018.1 hPa | - | - | - | - |
| 1777739024 | 27.78° C | 28% | 1018.2 hPa | - | - | - | - |
| 1777738872 | 27.78° C | 29% | 1018.3 hPa | - | - | - | - |
| 1777738847 | 27.78° C | 28% | 1018.3 hPa | - | - | - | - |
| 1777738796 | 27.78° C | 28% | 1018.3 hPa | - | - | - | - |
* Rain since midnight (hover to see other rain measurements)
** Current wind speed in m/s (hover to see current wind gust speed)